This is the latest recevied weather packets stored in our database for station/object N1PRS-9. If no packets are shown the sender has not sent any weather packets the latest 10 day(s).
| Time | Temp. | Humidity | Pressure | Rain* | Wind** | Luminosity | Snow |
|---|---|---|---|---|---|---|---|
| 1777873539 | 5.56° C | 71% | 1012 hPa | 0 mm | - | 0 W/m² | - |
| 1777871133 | 5.56° C | 65% | 1012 hPa | 0 mm | - | 0 W/m² | - |
| 1777870537 | 5.56° C | 64% | 1012 hPa | 0 mm | - | 0 W/m² | - |
| 1777869945 | 5.56° C | 65% | 1012 hPa | 0 mm | - | 0 W/m² | - |
| 1777869333 | 5.56° C | 67% | 1012 hPa | 0 mm | - | 0 W/m² | - |
| 1777868143 | 5.56° C | 68% | 1012 hPa | 0 mm | - | 0 W/m² | - |
| 1777867833 | 5.56° C | 67% | 1012 hPa | 0 mm | - | 0 W/m² | - |
| 1777866936 | 5.56° C | 64% | 1011.9 hPa | 0 mm | - | 0 W/m² | - |
| 1777866346 | 6.11° C | 65% | 1011.7 hPa | 0 mm | - | 0 W/m² | - |
| 1777864546 | 6.11° C | 60% | 1011.6 hPa | 0 mm | - | 0 W/m² | - |
| 1777860952 | 7.78° C | 56% | 1011.5 hPa | 0 mm | - | 0 W/m² | - |
| 1777851950 | 11.67° C | 42% | 1009.9 hPa | 0 mm | - | 0 W/m² | - |
| 1777850433 | 12.22° C | 38% | 1009.8 hPa | 0 mm | - | 32 W/m² | - |
| 1777849535 | 12.22° C | 37% | 1009.7 hPa | 0 mm | - | 40 W/m² | - |
| 1777848632 | 12.78° C | 37% | 1009.6 hPa | 0 mm | - | 46 W/m² | - |
| 1777848345 | 12.78° C | 39% | 1009.6 hPa | 0 mm | - | 47 W/m² | - |
| 1777847733 | 12.78° C | 38% | 1009.5 hPa | 0 mm | - | 51 W/m² | - |
| 1777847135 | 12.78° C | 37% | 1009.4 hPa | 0 mm | - | 244 W/m² | - |
| 1777845657 | 13.33° C | 36% | 1009.7 hPa | 0 mm | - | 357 W/m² | - |
| 1777845032 | 13.33° C | 37% | 1009.5 hPa | 0 mm | - | 410 W/m² | - |
| 1777844745 | 13.33° C | 37% | 1009.5 hPa | 0 mm | - | 431 W/m² | - |
| 1777844434 | 13.33° C | 37% | 1009.6 hPa | 0 mm | - | 473 W/m² | - |
| 1777844135 | 13.33° C | 38% | 1009.5 hPa | 0 mm | - | 476 W/m² | - |
| 1777843233 | 12.78° C | 39% | 1009.4 hPa | 0 mm | - | 603 W/m² | - |
| 1777842943 | 12.78° C | 40% | 1009.7 hPa | 0 mm | - | 580 W/m² | - |
* Rain latest hour (hover to see other rain measurements)
** Current wind speed in m/s (hover to see current wind gust speed)